sensor_id;sensor_type;location;lat;lon;timestamp;temperature;humidity
5150;DHT22;2593;52.466;13.436;2023-02-03T00:00:24;2.60;46.20
5150;DHT22;2593;52.466;13.436;2023-02-03T00:02:53;2.60;99.90
5150;DHT22;2593;52.466;13.436;2023-02-03T00:05:19;2.60;99.90
5150;DHT22;2593;52.466;13.436;2023-02-03T00:07:45;2.60;99.90
5150;DHT22;2593;52.466;13.436;2023-02-03T00:10:10;2.60;99.90
5150;DHT22;2593;52.466;13.436;2023-02-03T00:12:36;2.60;99.90
5150;DHT22;2593;52.466;13.436;2023-02-03T00:15:02;2.60;99.90
5150;DHT22;2593;52.466;13.436;2023-02-03T00:17:28;2.60;1.00
5150;DHT22;2593;52.466;13.436;2023-02-03T00:19:54;2.60;20.70
5150;DHT22;2593;52.466;13.436;2023-02-03T00:22:20;2.60;8.80
5150;DHT22;2593;52.466;13.436;2023-02-03T00:24:45;2.70;65.30
5150;DHT22;2593;52.466;13.436;2023-02-03T00:27:11;2.80;59.10
5150;DHT22;2593;52.466;13.436;2023-02-03T00:29:36;2.80;99.90
5150;DHT22;2593;52.466;13.436;2023-02-03T00:32:02;2.80;99.90
5150;DHT22;2593;52.466;13.436;2023-02-03T00:34:28;2.80;1.00
5150;DHT22;2593;52.466;13.436;2023-02-03T00:36:55;2.80;30.00
5150;DHT22;2593;52.466;13.436;2023-02-03T00:39:20;2.80;99.90
5150;DHT22;2593;52.466;13.436;2023-02-03T00:41:46;2.80;1.00
5150;DHT22;2593;52.466;13.436;2023-02-03T00:44:13;2.80;99.90
5150;DHT22;2593;52.466;13.436;2023-02-03T00:46:38;2.80;1.00
5150;DHT22;2593;52.466;13.436;2023-02-03T00:49:04;2.90;99.90
5150;DHT22;2593;52.466;13.436;2023-02-03T00:51:32;2.90;1.00
5150;DHT22;2593;52.466;13.436;2023-02-03T00:53:57;2.90;99.90
5150;DHT22;2593;52.466;13.436;2023-02-03T00:56:23;2.90;99.90
5150;DHT22;2593;52.466;13.436;2023-02-03T00:58:49;2.90;1.00
5150;DHT22;2593;52.466;13.436;2023-02-03T01:01:14;3.00;1.00
5150;DHT22;2593;52.466;13.436;2023-02-03T01:03:40;3.00;1.60
5150;DHT22;2593;52.466;13.436;2023-02-03T01:06:17;2.90;99.90
5150;DHT22;2593;52.466;13.436;2023-02-03T01:08:44;3.00;99.90
5150;DHT22;2593;52.466;13.436;2023-02-03T01:11:13;3.00;99.90
5150;DHT22;2593;52.466;13.436;2023-02-03T01:13:39;3.00;99.90
5150;DHT22;2593;52.466;13.436;2023-02-03T01:16:16;3.10;99.90
5150;DHT22;2593;52.466;13.436;2023-02-03T01:18:43;3.10;99.90
5150;DHT22;2593;52.466;13.436;2023-02-03T01:21:12;3.00;99.90
5150;DHT22;2593;52.466;13.436;2023-02-03T01:23:38;3.00;99.90
5150;DHT22;2593;52.466;13.436;2023-02-03T01:26:05;3.00;99.90
5150;DHT22;2593;52.466;13.436;2023-02-03T01:28:32;3.00;99.90
5150;DHT22;2593;52.466;13.436;2023-02-03T01:31:10;3.00;99.90
5150;DHT22;2593;52.466;13.436;2023-02-03T01:33:36;3.00;99.90
5150;DHT22;2593;52.466;13.436;2023-02-03T01:36:06;3.00;99.90
5150;DHT22;2593;52.466;13.436;2023-02-03T01:38:32;3.00;99.90
5150;DHT22;2593;52.466;13.436;2023-02-03T01:40:57;3.00;99.90
5150;DHT22;2593;52.466;13.436;2023-02-03T01:43:34;3.00;99.90
5150;DHT22;2593;52.466;13.436;2023-02-03T01:46:04;3.00;99.90
5150;DHT22;2593;52.466;13.436;2023-02-03T01:48:32;3.00;99.90
5150;DHT22;2593;52.466;13.436;2023-02-03T01:51:01;3.10;99.90
5150;DHT22;2593;52.466;13.436;2023-02-03T01:53:27;3.00;99.90
5150;DHT22;2593;52.466;13.436;2023-02-03T01:55:52;3.00;99.90
5150;DHT22;2593;52.466;13.436;2023-02-03T01:58:27;3.00;99.90
5150;DHT22;2593;52.466;13.436;2023-02-03T02:00:55;3.00;99.90
5150;DHT22;2593;52.466;13.436;2023-02-03T02:03:26;2.90;99.90
5150;DHT22;2593;52.466;13.436;2023-02-03T02:06:21;2.90;99.90
5150;DHT22;2593;52.466;13.436;2023-02-03T02:08:50;2.90;99.90
5150;DHT22;2593;52.466;13.436;2023-02-03T02:11:17;2.90;99.90
5150;DHT22;2593;52.466;13.436;2023-02-03T02:13:45;2.90;99.90
5150;DHT22;2593;52.466;13.436;2023-02-03T02:22:19;2.80;99.90
5150;DHT22;2593;52.466;13.436;2023-02-03T02:31:11;2.80;99.90
5150;DHT22;2593;52.466;13.436;2023-02-03T02:33:58;2.80;99.90
5150;DHT22;2593;52.466;13.436;2023-02-03T02:39:14;2.70;99.90
5150;DHT22;2593;52.466;13.436;2023-02-03T02:42:07;2.70;99.90
5150;DHT22;2593;52.466;13.436;2023-02-03T02:44:42;2.60;99.90
5150;DHT22;2593;52.466;13.436;2023-02-03T02:47:34;2.60;99.90
5150;DHT22;2593;52.466;13.436;2023-02-03T02:50:06;2.50;99.90
5150;DHT22;2593;52.466;13.436;2023-02-03T02:52:36;2.60;99.90
5150;DHT22;2593;52.466;13.436;2023-02-03T02:55:17;2.60;99.90
5150;DHT22;2593;52.466;13.436;2023-02-03T02:57:50;2.60;99.90
5150;DHT22;2593;52.466;13.436;2023-02-03T03:00:17;2.60;99.90
5150;DHT22;2593;52.466;13.436;2023-02-03T03:02:43;2.50;99.90
5150;DHT22;2593;52.466;13.436;2023-02-03T03:05:11;2.50;99.90
5150;DHT22;2593;52.466;13.436;2023-02-03T03:08:03;2.50;99.90
5150;DHT22;2593;52.466;13.436;2023-02-03T03:10:30;2.50;99.90
5150;DHT22;2593;52.466;13.436;2023-02-03T03:13:01;2.50;99.90
5150;DHT22;2593;52.466;13.436;2023-02-03T03:15:30;2.50;99.90
5150;DHT22;2593;52.466;13.436;2023-02-03T03:18:01;2.50;99.90
5150;DHT22;2593;52.466;13.436;2023-02-03T03:20:30;2.50;99.90
5150;DHT22;2593;52.466;13.436;2023-02-03T03:23:06;2.50;99.90
5150;DHT22;2593;52.466;13.436;2023-02-03T03:25:45;2.60;99.90
5150;DHT22;2593;52.466;13.436;2023-02-03T03:28:16;2.60;99.90
5150;DHT22;2593;52.466;13.436;2023-02-03T03:30:43;2.60;99.90
5150;DHT22;2593;52.466;13.436;2023-02-03T03:33:09;2.60;99.90
5150;DHT22;2593;52.466;13.436;2023-02-03T03:35:44;2.60;99.90
5150;DHT22;2593;52.466;13.436;2023-02-03T03:39:00;2.60;99.90
5150;DHT22;2593;52.466;13.436;2023-02-03T03:43:46;2.70;99.90
5150;DHT22;2593;52.466;13.436;2023-02-03T03:46:16;2.60;99.90
5150;DHT22;2593;52.466;13.436;2023-02-03T03:48:54;2.60;99.90
5150;DHT22;2593;52.466;13.436;2023-02-03T03:51:39;2.60;99.90
5150;DHT22;2593;52.466;13.436;2023-02-03T03:54:11;2.60;99.90
5150;DHT22;2593;52.466;13.436;2023-02-03T03:56:56;2.60;99.90
5150;DHT22;2593;52.466;13.436;2023-02-03T03:59:24;2.60;99.90
5150;DHT22;2593;52.466;13.436;2023-02-03T04:01:52;2.70;99.90
5150;DHT22;2593;52.466;13.436;2023-02-03T04:04:18;2.80;99.90
5150;DHT22;2593;52.466;13.436;2023-02-03T04:06:45;2.80;99.90
5150;DHT22;2593;52.466;13.436;2023-02-03T04:09:10;2.80;99.90
5150;DHT22;2593;52.466;13.436;2023-02-03T04:11:36;2.80;99.90
5150;DHT22;2593;52.466;13.436;2023-02-03T04:14:20;2.80;99.90
5150;DHT22;2593;52.466;13.436;2023-02-03T04:16:46;2.80;99.90
5150;DHT22;2593;52.466;13.436;2023-02-03T04:19:11;2.90;99.90
5150;DHT22;2593;52.466;13.436;2023-02-03T04:21:37;2.90;99.90
5150;DHT22;2593;52.466;13.436;2023-02-03T04:24:03;2.90;99.90
5150;DHT22;2593;52.466;13.436;2023-02-03T04:26:28;2.90;99.90
5150;DHT22;2593;52.466;13.436;2023-02-03T04:28:54;3.00;99.90
5150;DHT22;2593;52.466;13.436;2023-02-03T04:31:20;3.10;99.90
5150;DHT22;2593;52.466;13.436;2023-02-03T04:33:45;3.10;99.90
5150;DHT22;2593;52.466;13.436;2023-02-03T04:36:11;3.10;99.90
5150;DHT22;2593;52.466;13.436;2023-02-03T04:38:36;3.20;99.90
5150;DHT22;2593;52.466;13.436;2023-02-03T04:41:02;3.20;99.90
5150;DHT22;2593;52.466;13.436;2023-02-03T04:43:28;3.30;99.90
5150;DHT22;2593;52.466;13.436;2023-02-03T04:45:53;3.40;99.90
5150;DHT22;2593;52.466;13.436;2023-02-03T04:48:19;3.40;99.90
5150;DHT22;2593;52.466;13.436;2023-02-03T04:50:45;3.50;99.90
5150;DHT22;2593;52.466;13.436;2023-02-03T04:53:10;3.50;99.90
5150;DHT22;2593;52.466;13.436;2023-02-03T04:55:36;3.60;99.90
5150;DHT22;2593;52.466;13.436;2023-02-03T04:58:02;3.60;99.90
5150;DHT22;2593;52.466;13.436;2023-02-03T05:00:28;3.70;99.90
5150;DHT22;2593;52.466;13.436;2023-02-03T05:02:54;3.70;99.90
5150;DHT22;2593;52.466;13.436;2023-02-03T05:05:20;3.80;99.90
5150;DHT22;2593;52.466;13.436;2023-02-03T05:07:46;3.80;99.90
5150;DHT22;2593;52.466;13.436;2023-02-03T05:10:12;3.90;99.90
5150;DHT22;2593;52.466;13.436;2023-02-03T05:12:37;4.00;99.90
5150;DHT22;2593;52.466;13.436;2023-02-03T05:15:03;4.00;99.90
5150;DHT22;2593;52.466;13.436;2023-02-03T05:17:29;4.10;99.90
5150;DHT22;2593;52.466;13.436;2023-02-03T05:19:55;4.10;99.90
5150;DHT22;2593;52.466;13.436;2023-02-03T05:22:20;4.20;99.90
5150;DHT22;2593;52.466;13.436;2023-02-03T05:24:46;4.20;99.90
5150;DHT22;2593;52.466;13.436;2023-02-03T05:27:11;4.20;99.90
5150;DHT22;2593;52.466;13.436;2023-02-03T05:29:37;4.30;99.90
5150;DHT22;2593;52.466;13.436;2023-02-03T05:32:03;4.40;99.90
5150;DHT22;2593;52.466;13.436;2023-02-03T05:34:28;4.40;99.90
5150;DHT22;2593;52.466;13.436;2023-02-03T05:36:54;4.50;99.90
5150;DHT22;2593;52.466;13.436;2023-02-03T05:39:20;4.50;99.90
5150;DHT22;2593;52.466;13.436;2023-02-03T05:41:45;4.50;99.90
5150;DHT22;2593;52.466;13.436;2023-02-03T05:44:21;4.60;99.90
5150;DHT22;2593;52.466;13.436;2023-02-03T05:46:47;4.70;99.90
5150;DHT22;2593;52.466;13.436;2023-02-03T05:49:13;4.80;99.90
5150;DHT22;2593;52.466;13.436;2023-02-03T05:51:39;4.80;99.90
5150;DHT22;2593;52.466;13.436;2023-02-03T05:54:05;4.90;99.90
5150;DHT22;2593;52.466;13.436;2023-02-03T05:56:31;5.00;99.90
5150;DHT22;2593;52.466;13.436;2023-02-03T05:58:57;5.00;99.90
5150;DHT22;2593;52.466;13.436;2023-02-03T06:01:23;5.10;99.90
5150;DHT22;2593;52.466;13.436;2023-02-03T06:03:48;5.10;99.90
5150;DHT22;2593;52.466;13.436;2023-02-03T06:06:14;5.20;99.90
5150;DHT22;2593;52.466;13.436;2023-02-03T06:08:40;5.30;99.90
5150;DHT22;2593;52.466;13.436;2023-02-03T06:11:06;5.30;99.90
5150;DHT22;2593;52.466;13.436;2023-02-03T06:13:31;5.40;99.90
5150;DHT22;2593;52.466;13.436;2023-02-03T06:15:57;5.50;99.90
5150;DHT22;2593;52.466;13.436;2023-02-03T06:18:22;5.60;99.90
5150;DHT22;2593;52.466;13.436;2023-02-03T06:20:49;5.60;99.90
5150;DHT22;2593;52.466;13.436;2023-02-03T06:23:15;5.70;99.90
5150;DHT22;2593;52.466;13.436;2023-02-03T06:25:42;5.70;99.90
5150;DHT22;2593;52.466;13.436;2023-02-03T06:28:07;5.80;99.90
5150;DHT22;2593;52.466;13.436;2023-02-03T06:30:33;5.80;99.90
5150;DHT22;2593;52.466;13.436;2023-02-03T06:32:59;5.90;99.90
5150;DHT22;2593;52.466;13.436;2023-02-03T06:35:24;5.90;99.90
5150;DHT22;2593;52.466;13.436;2023-02-03T06:37:50;6.00;99.90
5150;DHT22;2593;52.466;13.436;2023-02-03T06:40:16;6.00;99.90
5150;DHT22;2593;52.466;13.436;2023-02-03T06:42:50;6.00;99.90
5150;DHT22;2593;52.466;13.436;2023-02-03T06:45:16;6.10;99.90
5150;DHT22;2593;52.466;13.436;2023-02-03T06:47:43;6.10;99.90
5150;DHT22;2593;52.466;13.436;2023-02-03T06:50:12;6.10;99.90
5150;DHT22;2593;52.466;13.436;2023-02-03T06:52:38;6.20;99.90
5150;DHT22;2593;52.466;13.436;2023-02-03T06:55:04;6.20;99.90
5150;DHT22;2593;52.466;13.436;2023-02-03T06:57:31;6.20;99.90
5150;DHT22;2593;52.466;13.436;2023-02-03T06:59:56;6.20;99.90
5150;DHT22;2593;52.466;13.436;2023-02-03T07:02:22;6.20;99.90
5150;DHT22;2593;52.466;13.436;2023-02-03T07:04:48;6.30;99.90
5150;DHT22;2593;52.466;13.436;2023-02-03T07:07:13;6.30;99.90
5150;DHT22;2593;52.466;13.436;2023-02-03T07:09:39;6.40;99.90
5150;DHT22;2593;52.466;13.436;2023-02-03T07:12:06;6.40;99.90
5150;DHT22;2593;52.466;13.436;2023-02-03T07:14:32;6.40;99.90
5150;DHT22;2593;52.466;13.436;2023-02-03T07:17:00;6.40;99.90
5150;DHT22;2593;52.466;13.436;2023-02-03T07:19:26;6.50;99.90
5150;DHT22;2593;52.466;13.436;2023-02-03T07:21:52;6.50;99.90
5150;DHT22;2593;52.466;13.436;2023-02-03T07:24:18;6.50;99.90
5150;DHT22;2593;52.466;13.436;2023-02-03T07:26:43;6.50;99.90
5150;DHT22;2593;52.466;13.436;2023-02-03T07:29:09;6.50;99.90
5150;DHT22;2593;52.466;13.436;2023-02-03T07:31:34;6.50;99.90
5150;DHT22;2593;52.466;13.436;2023-02-03T07:34:00;6.60;99.90
5150;DHT22;2593;52.466;13.436;2023-02-03T07:36:27;6.60;99.90
5150;DHT22;2593;52.466;13.436;2023-02-03T07:38:53;6.60;99.90
5150;DHT22;2593;52.466;13.436;2023-02-03T07:41:19;6.60;99.90
5150;DHT22;2593;52.466;13.436;2023-02-03T07:43:45;6.60;99.90
5150;DHT22;2593;52.466;13.436;2023-02-03T07:46:11;6.70;99.90
5150;DHT22;2593;52.466;13.436;2023-02-03T07:48:36;6.80;99.90
5150;DHT22;2593;52.466;13.436;2023-02-03T07:51:02;6.80;99.90
5150;DHT22;2593;52.466;13.436;2023-02-03T07:53:28;6.80;99.90
5150;DHT22;2593;52.466;13.436;2023-02-03T07:55:54;6.80;99.90
5150;DHT22;2593;52.466;13.436;2023-02-03T07:58:19;6.80;99.90
5150;DHT22;2593;52.466;13.436;2023-02-03T08:00:45;6.90;99.90
5150;DHT22;2593;52.466;13.436;2023-02-03T08:03:10;6.90;99.90
5150;DHT22;2593;52.466;13.436;2023-02-03T08:05:36;6.90;99.90
5150;DHT22;2593;52.466;13.436;2023-02-03T08:08:02;6.90;99.90
5150;DHT22;2593;52.466;13.436;2023-02-03T08:10:28;6.90;99.90
5150;DHT22;2593;52.466;13.436;2023-02-03T08:12:54;6.90;99.90
5150;DHT22;2593;52.466;13.436;2023-02-03T08:15:20;6.90;99.90
5150;DHT22;2593;52.466;13.436;2023-02-03T08:17:48;6.90;99.90
5150;DHT22;2593;52.466;13.436;2023-02-03T08:20:13;6.90;99.90
5150;DHT22;2593;52.466;13.436;2023-02-03T08:22:39;6.90;99.90
5150;DHT22;2593;52.466;13.436;2023-02-03T08:25:05;6.90;99.90
5150;DHT22;2593;52.466;13.436;2023-02-03T08:27:31;7.00;99.90
5150;DHT22;2593;52.466;13.436;2023-02-03T08:29:57;7.00;99.90
5150;DHT22;2593;52.466;13.436;2023-02-03T08:32:23;7.00;99.90
5150;DHT22;2593;52.466;13.436;2023-02-03T08:34:49;7.00;99.90
5150;DHT22;2593;52.466;13.436;2023-02-03T08:37:17;7.00;99.90
5150;DHT22;2593;52.466;13.436;2023-02-03T08:39:43;7.00;99.90
5150;DHT22;2593;52.466;13.436;2023-02-03T08:42:09;7.00;99.90
5150;DHT22;2593;52.466;13.436;2023-02-03T08:44:35;7.00;99.90
5150;DHT22;2593;52.466;13.436;2023-02-03T08:47:03;7.00;99.90
5150;DHT22;2593;52.466;13.436;2023-02-03T08:49:29;7.00;99.90
5150;DHT22;2593;52.466;13.436;2023-02-03T08:51:56;7.10;99.90
5150;DHT22;2593;52.466;13.436;2023-02-03T08:54:23;7.10;99.90
5150;DHT22;2593;52.466;13.436;2023-02-03T08:56:49;7.10;99.90
5150;DHT22;2593;52.466;13.436;2023-02-03T08:59:15;7.20;99.90
5150;DHT22;2593;52.466;13.436;2023-02-03T09:01:41;7.20;99.90
5150;DHT22;2593;52.466;13.436;2023-02-03T09:04:13;7.20;99.90
5150;DHT22;2593;52.466;13.436;2023-02-03T09:06:40;7.10;99.90
5150;DHT22;2593;52.466;13.436;2023-02-03T09:09:05;7.20;99.90
5150;DHT22;2593;52.466;13.436;2023-02-03T09:11:31;7.20;99.90
5150;DHT22;2593;52.466;13.436;2023-02-03T09:13:56;7.20;99.90
5150;DHT22;2593;52.466;13.436;2023-02-03T09:16:23;7.20;99.90
5150;DHT22;2593;52.466;13.436;2023-02-03T09:18:49;7.20;99.90
5150;DHT22;2593;52.466;13.436;2023-02-03T09:21:16;7.20;99.90
5150;DHT22;2593;52.466;13.436;2023-02-03T09:23:42;7.20;99.90
5150;DHT22;2593;52.466;13.436;2023-02-03T09:26:13;7.20;99.90
5150;DHT22;2593;52.466;13.436;2023-02-03T09:28:39;7.20;99.90
5150;DHT22;2593;52.466;13.436;2023-02-03T09:31:10;7.30;99.90
5150;DHT22;2593;52.466;13.436;2023-02-03T09:33:37;7.30;99.90
5150;DHT22;2593;52.466;13.436;2023-02-03T09:36:03;7.30;99.90
5150;DHT22;2593;52.466;13.436;2023-02-03T09:38:30;7.20;99.90
5150;DHT22;2593;52.466;13.436;2023-02-03T09:41:06;7.30;99.90
5150;DHT22;2593;52.466;13.436;2023-02-03T09:44:17;7.30;99.90
5150;DHT22;2593;52.466;13.436;2023-02-03T09:47:01;7.30;99.90
5150;DHT22;2593;52.466;13.436;2023-02-03T09:49:41;7.30;99.90
5150;DHT22;2593;52.466;13.436;2023-02-03T09:52:17;7.30;99.90
5150;DHT22;2593;52.466;13.436;2023-02-03T09:54:55;7.40;99.90
5150;DHT22;2593;52.466;13.436;2023-02-03T09:57:36;7.30;99.90
5150;DHT22;2593;52.466;13.436;2023-02-03T10:00:16;7.40;99.90
5150;DHT22;2593;52.466;13.436;2023-02-03T10:05:29;7.40;99.90
5150;DHT22;2593;52.466;13.436;2023-02-03T10:08:08;7.40;99.90
5150;DHT22;2593;52.466;13.436;2023-02-03T10:10:40;7.50;99.90
5150;DHT22;2593;52.466;13.436;2023-02-03T10:18:17;7.50;99.90
5150;DHT22;2593;52.466;13.436;2023-02-03T10:20:53;7.50;99.90
5150;DHT22;2593;52.466;13.436;2023-02-03T10:23:29;7.60;99.90
5150;DHT22;2593;52.466;13.436;2023-02-03T10:25:58;7.60;99.90
5150;DHT22;2593;52.466;13.436;2023-02-03T10:28:43;7.60;99.90
5150;DHT22;2593;52.466;13.436;2023-02-03T10:31:22;7.60;99.90
5150;DHT22;2593;52.466;13.436;2023-02-03T10:33:59;7.70;99.90
5150;DHT22;2593;52.466;13.436;2023-02-03T10:37:01;7.70;99.90
5150;DHT22;2593;52.466;13.436;2023-02-03T10:39:35;7.70;99.90
5150;DHT22;2593;52.466;13.436;2023-02-03T10:42:04;7.70;99.90
5150;DHT22;2593;52.466;13.436;2023-02-03T10:44:36;7.70;99.90
5150;DHT22;2593;52.466;13.436;2023-02-03T10:49:43;7.70;99.90
5150;DHT22;2593;52.466;13.436;2023-02-03T10:52:32;7.70;99.90
5150;DHT22;2593;52.466;13.436;2023-02-03T10:55:26;7.70;99.90
5150;DHT22;2593;52.466;13.436;2023-02-03T10:57:51;7.70;99.90
5150;DHT22;2593;52.466;13.436;2023-02-03T11:00:22;7.50;99.90
5150;DHT22;2593;52.466;13.436;2023-02-03T11:05:26;7.20;99.90
5150;DHT22;2593;52.466;13.436;2023-02-03T11:07:52;7.20;99.90
5150;DHT22;2593;52.466;13.436;2023-02-03T11:10:38;7.20;99.90
5150;DHT22;2593;52.466;13.436;2023-02-03T11:13:22;7.20;99.90
5150;DHT22;2593;52.466;13.436;2023-02-03T11:15:51;7.20;99.90
5150;DHT22;2593;52.466;13.436;2023-02-03T11:21:28;7.30;99.90
5150;DHT22;2593;52.466;13.436;2023-02-03T11:24:03;7.30;99.90
5150;DHT22;2593;52.466;13.436;2023-02-03T11:26:42;7.30;99.90
5150;DHT22;2593;52.466;13.436;2023-02-03T11:29:25;7.30;99.90
5150;DHT22;2593;52.466;13.436;2023-02-03T11:31:54;7.40;99.90
5150;DHT22;2593;52.466;13.436;2023-02-03T11:34:35;7.40;99.90
5150;DHT22;2593;52.466;13.436;2023-02-03T11:37:25;7.50;99.90
5150;DHT22;2593;52.466;13.436;2023-02-03T11:40:39;7.50;99.90
5150;DHT22;2593;52.466;13.436;2023-02-03T11:42:49;7.50;99.90
5150;DHT22;2593;52.466;13.436;2023-02-03T11:50:59;7.70;99.90
5150;DHT22;2593;52.466;13.436;2023-02-03T11:57:14;7.80;99.90
5150;DHT22;2593;52.466;13.436;2023-02-03T12:21:45;8.00;99.90
5150;DHT22;2593;52.466;13.436;2023-02-03T12:30:08;8.40;99.90
5150;DHT22;2593;52.466;13.436;2023-02-03T12:39:20;8.50;1.00
5150;DHT22;2593;52.466;13.436;2023-02-03T12:41:33;8.60;1.00
5150;DHT22;2593;52.466;13.436;2023-02-03T12:44:04;8.80;99.90
5150;DHT22;2593;52.466;13.436;2023-02-03T12:46:43;8.80;99.90
5150;DHT22;2593;52.466;13.436;2023-02-03T12:51:50;8.70;99.90
5150;DHT22;2593;52.466;13.436;2023-02-03T12:57:05;8.70;99.90
5150;DHT22;2593;52.466;13.436;2023-02-03T12:59:36;8.60;99.90
5150;DHT22;2593;52.466;13.436;2023-02-03T13:02:16;8.50;99.90
5150;DHT22;2593;52.466;13.436;2023-02-03T13:04:54;8.40;99.90
5150;DHT22;2593;52.466;13.436;2023-02-03T13:07:34;8.20;99.90
5150;DHT22;2593;52.466;13.436;2023-02-03T13:13:16;6.90;1.00
5150;DHT22;2593;52.466;13.436;2023-02-03T13:15:47;6.40;99.90
5150;DHT22;2593;52.466;13.436;2023-02-03T13:18:27;6.30;1.00
5150;DHT22;2593;52.466;13.436;2023-02-03T13:20:56;6.30;28.60
5150;DHT22;2593;52.466;13.436;2023-02-03T13:23:22;6.10;80.00
5150;DHT22;2593;52.466;13.436;2023-02-03T13:42:36;5.80;1.00
5150;DHT22;2593;52.466;13.436;2023-02-03T13:45:24;5.80;99.90
5150;DHT22;2593;52.466;13.436;2023-02-03T13:47:53;5.80;55.40
5150;DHT22;2593;52.466;13.436;2023-02-03T13:50:25;5.90;99.90
5150;DHT22;2593;52.466;13.436;2023-02-03T13:58:36;5.90;99.90
5150;DHT22;2593;52.466;13.436;2023-02-03T14:05:56;6.00;1.00
5150;DHT22;2593;52.466;13.436;2023-02-03T14:16:38;6.20;1.00
5150;DHT22;2593;52.466;13.436;2023-02-03T14:19:11;6.20;1.00
5150;DHT22;2593;52.466;13.436;2023-02-03T14:21:45;6.30;35.10
5150;DHT22;2593;52.466;13.436;2023-02-03T14:24:13;6.40;99.90
5150;DHT22;2593;52.466;13.436;2023-02-03T14:26:42;6.50;99.90
5150;DHT22;2593;52.466;13.436;2023-02-03T14:29:24;6.50;1.00
5150;DHT22;2593;52.466;13.436;2023-02-03T14:32:04;6.50;1.00
5150;DHT22;2593;52.466;13.436;2023-02-03T14:34:37;6.50;1.00
5150;DHT22;2593;52.466;13.436;2023-02-03T14:54:02;7.00;79.60
5150;DHT22;2593;52.466;13.436;2023-02-03T15:02:10;7.10;1.00
5150;DHT22;2593;52.466;13.436;2023-02-03T15:04:36;7.10;99.90
5150;DHT22;2593;52.466;13.436;2023-02-03T15:07:02;7.20;99.90
5150;DHT22;2593;52.466;13.436;2023-02-03T15:09:46;7.20;99.90
5150;DHT22;2593;52.466;13.436;2023-02-03T15:12:22;7.20;99.90
5150;DHT22;2593;52.466;13.436;2023-02-03T15:14:49;7.20;99.90
5150;DHT22;2593;52.466;13.436;2023-02-03T15:17:26;7.20;99.90
5150;DHT22;2593;52.466;13.436;2023-02-03T15:19:53;7.20;99.90
5150;DHT22;2593;52.466;13.436;2023-02-03T15:22:22;7.20;99.90
5150;DHT22;2593;52.466;13.436;2023-02-03T15:24:54;7.10;99.90
5150;DHT22;2593;52.466;13.436;2023-02-03T15:27:25;7.10;99.90
5150;DHT22;2593;52.466;13.436;2023-02-03T15:29:51;7.10;99.90
5150;DHT22;2593;52.466;13.436;2023-02-03T15:32:22;7.10;99.90
5150;DHT22;2593;52.466;13.436;2023-02-03T15:34:51;7.00;99.90
5150;DHT22;2593;52.466;13.436;2023-02-03T15:37:22;7.10;99.90
5150;DHT22;2593;52.466;13.436;2023-02-03T15:40:16;7.00;99.90
5150;DHT22;2593;52.466;13.436;2023-02-03T15:42:57;7.10;99.90
5150;DHT22;2593;52.466;13.436;2023-02-03T15:48:06;7.10;1.00
5150;DHT22;2593;52.466;13.436;2023-02-03T15:50:42;7.00;1.00
5150;DHT22;2593;52.466;13.436;2023-02-03T15:53:19;6.90;1.00
5150;DHT22;2593;52.466;13.436;2023-02-03T15:55:49;6.90;1.00
5150;DHT22;2593;52.466;13.436;2023-02-03T15:58:17;6.90;1.00
5150;DHT22;2593;52.466;13.436;2023-02-03T16:00:47;6.90;1.00
5150;DHT22;2593;52.466;13.436;2023-02-03T16:03:18;6.90;22.90
5150;DHT22;2593;52.466;13.436;2023-02-03T16:05:46;6.90;42.70
5150;DHT22;2593;52.466;13.436;2023-02-03T16:08:35;6.90;83.20
5150;DHT22;2593;52.466;13.436;2023-02-03T16:13:48;6.90;99.90
5150;DHT22;2593;52.466;13.436;2023-02-03T16:16:17;6.80;99.90
5150;DHT22;2593;52.466;13.436;2023-02-03T16:18:51;6.80;99.90
5150;DHT22;2593;52.466;13.436;2023-02-03T16:24:40;6.90;36.50
5150;DHT22;2593;52.466;13.436;2023-02-03T16:35:54;6.80;93.30
5150;DHT22;2593;52.466;13.436;2023-02-03T16:38:46;6.90;66.40
5150;DHT22;2593;52.466;13.436;2023-02-03T16:41:31;6.90;99.90
5150;DHT22;2593;52.466;13.436;2023-02-03T16:44:16;6.90;99.90
5150;DHT22;2593;52.466;13.436;2023-02-03T16:47:01;6.90;99.90
5150;DHT22;2593;52.466;13.436;2023-02-03T16:49:45;6.90;99.90
5150;DHT22;2593;52.466;13.436;2023-02-03T16:52:30;6.90;99.90
5150;DHT22;2593;52.466;13.436;2023-02-03T16:54:57;6.90;99.90
5150;DHT22;2593;52.466;13.436;2023-02-03T16:57:24;6.90;99.90
5150;DHT22;2593;52.466;13.436;2023-02-03T16:59:49;6.90;99.90
5150;DHT22;2593;52.466;13.436;2023-02-03T17:02:15;6.80;99.90
5150;DHT22;2593;52.466;13.436;2023-02-03T17:04:41;6.80;99.90
5150;DHT22;2593;52.466;13.436;2023-02-03T17:07:06;6.80;99.90
5150;DHT22;2593;52.466;13.436;2023-02-03T17:09:33;6.90;99.90
5150;DHT22;2593;52.466;13.436;2023-02-03T17:12:03;6.90;93.50
5150;DHT22;2593;52.466;13.436;2023-02-03T17:14:29;6.90;50.60
5150;DHT22;2593;52.466;13.436;2023-02-03T17:16:55;6.90;1.00
5150;DHT22;2593;52.466;13.436;2023-02-03T17:19:21;6.90;1.00
5150;DHT22;2593;52.466;13.436;2023-02-03T17:21:46;6.90;1.00
5150;DHT22;2593;52.466;13.436;2023-02-03T17:24:13;6.80;1.00
5150;DHT22;2593;52.466;13.436;2023-02-03T17:26:39;6.80;1.00
5150;DHT22;2593;52.466;13.436;2023-02-03T17:29:04;6.80;1.00
5150;DHT22;2593;52.466;13.436;2023-02-03T17:31:31;6.80;1.00
5150;DHT22;2593;52.466;13.436;2023-02-03T17:33:57;6.80;1.00
5150;DHT22;2593;52.466;13.436;2023-02-03T17:36:23;6.80;1.00
5150;DHT22;2593;52.466;13.436;2023-02-03T17:38:54;6.80;1.00
5150;DHT22;2593;52.466;13.436;2023-02-03T17:41:22;6.90;1.00
5150;DHT22;2593;52.466;13.436;2023-02-03T17:43:49;6.90;1.00
5150;DHT22;2593;52.466;13.436;2023-02-03T17:46:18;7.00;1.00
5150;DHT22;2593;52.466;13.436;2023-02-03T17:48:44;7.00;1.00
5150;DHT22;2593;52.466;13.436;2023-02-03T17:51:11;6.90;1.00
5150;DHT22;2593;52.466;13.436;2023-02-03T17:53:38;6.90;1.00
5150;DHT22;2593;52.466;13.436;2023-02-03T17:58:37;6.90;1.00
5150;DHT22;2593;52.466;13.436;2023-02-03T18:01:10;6.90;1.00
5150;DHT22;2593;52.466;13.436;2023-02-03T18:03:43;6.90;1.00
5150;DHT22;2593;52.466;13.436;2023-02-03T18:06:09;6.90;1.00
5150;DHT22;2593;52.466;13.436;2023-02-03T18:08:35;6.90;1.00
5150;DHT22;2593;52.466;13.436;2023-02-03T18:11:01;6.90;1.00
5150;DHT22;2593;52.466;13.436;2023-02-03T18:13:27;7.00;1.00
5150;DHT22;2593;52.466;13.436;2023-02-03T18:15:56;6.90;1.00
5150;DHT22;2593;52.466;13.436;2023-02-03T18:18:21;6.90;1.00
5150;DHT22;2593;52.466;13.436;2023-02-03T18:20:47;6.90;1.00
5150;DHT22;2593;52.466;13.436;2023-02-03T18:23:13;6.90;1.00
5150;DHT22;2593;52.466;13.436;2023-02-03T18:25:39;7.00;1.00
5150;DHT22;2593;52.466;13.436;2023-02-03T18:28:04;7.00;1.00
5150;DHT22;2593;52.466;13.436;2023-02-03T18:30:30;6.90;1.00
5150;DHT22;2593;52.466;13.436;2023-02-03T18:32:56;6.90;1.00
5150;DHT22;2593;52.466;13.436;2023-02-03T18:35:24;6.90;1.00
5150;DHT22;2593;52.466;13.436;2023-02-03T18:37:49;6.90;1.00
5150;DHT22;2593;52.466;13.436;2023-02-03T18:40:16;6.90;1.00
5150;DHT22;2593;52.466;13.436;2023-02-03T18:42:42;6.90;1.00
5150;DHT22;2593;52.466;13.436;2023-02-03T18:45:08;7.00;1.00
5150;DHT22;2593;52.466;13.436;2023-02-03T18:47:33;7.00;1.00
5150;DHT22;2593;52.466;13.436;2023-02-03T18:49:59;7.00;1.00
5150;DHT22;2593;52.466;13.436;2023-02-03T18:52:25;7.00;1.00
5150;DHT22;2593;52.466;13.436;2023-02-03T18:54:51;7.00;1.00
5150;DHT22;2593;52.466;13.436;2023-02-03T18:57:16;7.00;1.00
5150;DHT22;2593;52.466;13.436;2023-02-03T18:59:42;7.00;1.00
5150;DHT22;2593;52.466;13.436;2023-02-03T19:02:11;7.00;1.00
5150;DHT22;2593;52.466;13.436;2023-02-03T19:04:37;6.90;1.00